sensor_id;sensor_type;location;lat;lon;timestamp;P1;durP1;ratioP1;P2;durP2;ratioP2
57441;SDS011;43284;47.042;15.498;2023-02-28T00:00:31;6.25;;;3.85;;
57441;SDS011;43284;47.042;15.498;2023-02-28T00:02:57;10.15;;;3.97;;
57441;SDS011;43284;47.042;15.498;2023-02-28T00:05:24;5.60;;;4.00;;
57441;SDS011;43284;47.042;15.498;2023-02-28T00:07:51;7.38;;;4.18;;
57441;SDS011;43284;47.042;15.498;2023-02-28T00:10:22;7.40;;;3.88;;
57441;SDS011;43284;47.042;15.498;2023-02-28T00:12:53;8.68;;;4.28;;
57441;SDS011;43284;47.042;15.498;2023-02-28T00:15:22;10.07;;;3.80;;
57441;SDS011;43284;47.042;15.498;2023-02-28T00:17:48;9.98;;;4.22;;
57441;SDS011;43284;47.042;15.498;2023-02-28T00:20:17;9.98;;;4.22;;
57441;SDS011;43284;47.042;15.498;2023-02-28T00:22:45;10.43;;;3.80;;
57441;SDS011;43284;47.042;15.498;2023-02-28T00:25:14;6.43;;;3.97;;
57441;SDS011;43284;47.042;15.498;2023-02-28T00:27:42;8.07;;;4.18;;
57441;SDS011;43284;47.042;15.498;2023-02-28T00:30:09;7.90;;;3.25;;
57441;SDS011;43284;47.042;15.498;2023-02-28T00:32:36;6.60;;;3.47;;
57441;SDS011;43284;47.042;15.498;2023-02-28T00:35:02;7.13;;;4.20;;
57441;SDS011;43284;47.042;15.498;2023-02-28T00:37:29;9.40;;;4.07;;
57441;SDS011;43284;47.042;15.498;2023-02-28T00:39:55;5.78;;;3.50;;
57441;SDS011;43284;47.042;15.498;2023-02-28T00:42:21;9.60;;;3.97;;
57441;SDS011;43284;47.042;15.498;2023-02-28T00:44:48;10.50;;;4.00;;
57441;SDS011;43284;47.042;15.498;2023-02-28T00:47:14;9.05;;;4.32;;
57441;SDS011;43284;47.042;15.498;2023-02-28T00:49:39;7.13;;;3.67;;
57441;SDS011;43284;47.042;15.498;2023-02-28T00:52:05;8.07;;;4.18;;
57441;SDS011;43284;47.042;15.498;2023-02-28T00:54:31;6.90;;;4.07;;
57441;SDS011;43284;47.042;15.498;2023-02-28T00:56:57;8.27;;;4.20;;
57441;SDS011;43284;47.042;15.498;2023-02-28T00:59:22;8.65;;;4.10;;
57441;SDS011;43284;47.042;15.498;2023-02-28T01:01:48;11.10;;;4.15;;
57441;SDS011;43284;47.042;15.498;2023-02-28T01:04:14;10.02;;;5.00;;
57441;SDS011;43284;47.042;15.498;2023-02-28T01:06:39;8.50;;;4.07;;
57441;SDS011;43284;47.042;15.498;2023-02-28T01:09:06;6.88;;;4.28;;
57441;SDS011;43284;47.042;15.498;2023-02-28T01:11:33;7.78;;;3.72;;
57441;SDS011;43284;47.042;15.498;2023-02-28T01:13:59;8.60;;;4.22;;
57441;SDS011;43284;47.042;15.498;2023-02-28T01:16:26;9.07;;;4.18;;
57441;SDS011;43284;47.042;15.498;2023-02-28T01:18:52;8.52;;;4.47;;
57441;SDS011;43284;47.042;15.498;2023-02-28T01:21:19;9.57;;;4.63;;
57441;SDS011;43284;47.042;15.498;2023-02-28T01:23:48;8.75;;;4.07;;
57441;SDS011;43284;47.042;15.498;2023-02-28T01:26:18;9.82;;;4.55;;
57441;SDS011;43284;47.042;15.498;2023-02-28T01:28:46;9.10;;;4.45;;
57441;SDS011;43284;47.042;15.498;2023-02-28T01:31:13;9.57;;;4.45;;
57441;SDS011;43284;47.042;15.498;2023-02-28T01:33:39;10.60;;;4.78;;
57441;SDS011;43284;47.042;15.498;2023-02-28T01:36:06;8.55;;;4.45;;
57441;SDS011;43284;47.042;15.498;2023-02-28T01:38:40;11.57;;;5.03;;
57441;SDS011;43284;47.042;15.498;2023-02-28T01:41:06;11.98;;;4.95;;
57441;SDS011;43284;47.042;15.498;2023-02-28T01:43:52;8.15;;;4.65;;
57441;SDS011;43284;47.042;15.498;2023-02-28T01:46:28;8.98;;;4.43;;
57441;SDS011;43284;47.042;15.498;2023-02-28T01:51:53;12.95;;;4.63;;
57441;SDS011;43284;47.042;15.498;2023-02-28T01:54:26;10.50;;;4.95;;
57441;SDS011;43284;47.042;15.498;2023-02-28T01:56:57;7.32;;;4.20;;
57441;SDS011;43284;47.042;15.498;2023-02-28T01:59:37;7.47;;;4.63;;
57441;SDS011;43284;47.042;15.498;2023-02-28T02:02:11;9.23;;;4.75;;
57441;SDS011;43284;47.042;15.498;2023-02-28T02:04:39;12.55;;;5.07;;
57441;SDS011;43284;47.042;15.498;2023-02-28T02:07:11;6.80;;;4.00;;
57441;SDS011;43284;47.042;15.498;2023-02-28T02:09:39;17.58;;;4.57;;
57441;SDS011;43284;47.042;15.498;2023-02-28T02:12:08;8.85;;;4.30;;
57441;SDS011;43284;47.042;15.498;2023-02-28T02:14:57;10.35;;;4.28;;
57441;SDS011;43284;47.042;15.498;2023-02-28T02:17:45;9.48;;;4.32;;
57441;SDS011;43284;47.042;15.498;2023-02-28T02:23:07;9.35;;;4.43;;
57441;SDS011;43284;47.042;15.498;2023-02-28T02:29:03;9.53;;;4.43;;
57441;SDS011;43284;47.042;15.498;2023-02-28T02:31:52;10.05;;;4.15;;
57441;SDS011;43284;47.042;15.498;2023-02-28T02:37:29;8.50;;;4.32;;
57441;SDS011;43284;47.042;15.498;2023-02-28T02:43:18;8.23;;;4.45;;
57441;SDS011;43284;47.042;15.498;2023-02-28T02:45:45;8.77;;;4.50;;
57441;SDS011;43284;47.042;15.498;2023-02-28T02:48:16;8.60;;;4.43;;
57441;SDS011;43284;47.042;15.498;2023-02-28T02:50:45;8.60;;;4.82;;
57441;SDS011;43284;47.042;15.498;2023-02-28T02:53:16;9.40;;;3.97;;
57441;SDS011;43284;47.042;15.498;2023-02-28T02:55:47;8.73;;;4.00;;
57441;SDS011;43284;47.042;15.498;2023-02-28T02:58:20;9.17;;;4.43;;
57441;SDS011;43284;47.042;15.498;2023-02-28T03:00:53;7.70;;;4.03;;
57441;SDS011;43284;47.042;15.498;2023-02-28T03:03:23;10.07;;;4.45;;
57441;SDS011;43284;47.042;15.498;2023-02-28T03:05:59;10.15;;;4.40;;
57441;SDS011;43284;47.042;15.498;2023-02-28T03:08:27;10.02;;;4.65;;
57441;SDS011;43284;47.042;15.498;2023-02-28T03:10:57;7.72;;;4.35;;
57441;SDS011;43284;47.042;15.498;2023-02-28T03:18:54;7.97;;;4.35;;
57441;SDS011;43284;47.042;15.498;2023-02-28T03:21:38;8.68;;;4.15;;
57441;SDS011;43284;47.042;15.498;2023-02-28T03:26:34;8.68;;;4.28;;
57441;SDS011;43284;47.042;15.498;2023-02-28T03:31:47;12.35;;;4.55;;
57441;SDS011;43284;47.042;15.498;2023-02-28T03:34:24;9.18;;;4.68;;
57441;SDS011;43284;47.042;15.498;2023-02-28T03:36:55;7.07;;;4.63;;
57441;SDS011;43284;47.042;15.498;2023-02-28T03:39:28;7.95;;;4.28;;
57441;SDS011;43284;47.042;15.498;2023-02-28T03:42:02;7.82;;;4.00;;
57441;SDS011;43284;47.042;15.498;2023-02-28T03:44:33;12.77;;;4.30;;
57441;SDS011;43284;47.042;15.498;2023-02-28T03:47:10;6.90;;;4.13;;
57441;SDS011;43284;47.042;15.498;2023-02-28T03:49:45;10.20;;;4.65;;
57441;SDS011;43284;47.042;15.498;2023-02-28T03:52:14;6.88;;;4.47;;
57441;SDS011;43284;47.042;15.498;2023-02-28T03:54:48;8.05;;;4.20;;
57441;SDS011;43284;47.042;15.498;2023-02-28T03:59:55;9.20;;;4.45;;
57441;SDS011;43284;47.042;15.498;2023-02-28T04:02:33;9.00;;;4.40;;
57441;SDS011;43284;47.042;15.498;2023-02-28T04:04:59;7.60;;;3.70;;
57441;SDS011;43284;47.042;15.498;2023-02-28T04:07:28;11.77;;;4.65;;
57441;SDS011;43284;47.042;15.498;2023-02-28T04:09:55;7.95;;;4.32;;
57441;SDS011;43284;47.042;15.498;2023-02-28T04:12:21;9.27;;;4.68;;
57441;SDS011;43284;47.042;15.498;2023-02-28T04:14:48;7.55;;;3.65;;
57441;SDS011;43284;47.042;15.498;2023-02-28T04:17:15;7.38;;;4.63;;
57441;SDS011;43284;47.042;15.498;2023-02-28T04:19:41;12.10;;;5.15;;
57441;SDS011;43284;47.042;15.498;2023-02-28T04:22:07;10.40;;;4.90;;
57441;SDS011;43284;47.042;15.498;2023-02-28T04:24:34;7.00;;;4.15;;
57441;SDS011;43284;47.042;15.498;2023-02-28T04:27:01;10.85;;;4.65;;
57441;SDS011;43284;47.042;15.498;2023-02-28T04:29:27;8.00;;;4.13;;
57441;SDS011;43284;47.042;15.498;2023-02-28T04:31:55;12.32;;;5.03;;
57441;SDS011;43284;47.042;15.498;2023-02-28T04:34:25;9.63;;;4.72;;
57441;SDS011;43284;47.042;15.498;2023-02-28T04:36:53;9.45;;;5.03;;
57441;SDS011;43284;47.042;15.498;2023-02-28T04:39:22;9.82;;;4.60;;
57441;SDS011;43284;47.042;15.498;2023-02-28T04:41:49;10.98;;;4.05;;
57441;SDS011;43284;47.042;15.498;2023-02-28T04:44:15;9.50;;;4.63;;
57441;SDS011;43284;47.042;15.498;2023-02-28T04:46:41;6.57;;;3.92;;
57441;SDS011;43284;47.042;15.498;2023-02-28T04:49:08;10.73;;;4.07;;
57441;SDS011;43284;47.042;15.498;2023-02-28T04:51:36;6.53;;;4.32;;
57441;SDS011;43284;47.042;15.498;2023-02-28T04:54:01;7.43;;;4.18;;
57441;SDS011;43284;47.042;15.498;2023-02-28T04:56:29;11.38;;;4.82;;
57441;SDS011;43284;47.042;15.498;2023-02-28T04:58:54;8.52;;;4.38;;
57441;SDS011;43284;47.042;15.498;2023-02-28T05:03:46;10.95;;;4.60;;
57441;SDS011;43284;47.042;15.498;2023-02-28T05:06:12;11.50;;;4.70;;
57441;SDS011;43284;47.042;15.498;2023-02-28T05:08:39;7.40;;;4.38;;
57441;SDS011;43284;47.042;15.498;2023-02-28T05:11:18;9.88;;;5.03;;
57441;SDS011;43284;47.042;15.498;2023-02-28T05:13:47;8.40;;;4.13;;
57441;SDS011;43284;47.042;15.498;2023-02-28T05:16:13;10.10;;;4.80;;
57441;SDS011;43284;47.042;15.498;2023-02-28T05:18:38;7.55;;;4.40;;
57441;SDS011;43284;47.042;15.498;2023-02-28T05:21:04;9.00;;;4.72;;
57441;SDS011;43284;47.042;15.498;2023-02-28T05:23:30;10.52;;;4.80;;
57441;SDS011;43284;47.042;15.498;2023-02-28T05:25:56;8.38;;;4.85;;
57441;SDS011;43284;47.042;15.498;2023-02-28T05:28:22;8.35;;;4.53;;
57441;SDS011;43284;47.042;15.498;2023-02-28T05:30:48;8.35;;;4.82;;
57441;SDS011;43284;47.042;15.498;2023-02-28T05:33:14;9.38;;;5.10;;
57441;SDS011;43284;47.042;15.498;2023-02-28T05:35:40;8.75;;;4.90;;
57441;SDS011;43284;47.042;15.498;2023-02-28T05:38:07;9.85;;;4.63;;
57441;SDS011;43284;47.042;15.498;2023-02-28T05:40:33;10.40;;;4.90;;
57441;SDS011;43284;47.042;15.498;2023-02-28T05:42:59;8.82;;;4.95;;
57441;SDS011;43284;47.042;15.498;2023-02-28T05:45:25;10.30;;;4.97;;
57441;SDS011;43284;47.042;15.498;2023-02-28T05:47:54;10.95;;;4.38;;
57441;SDS011;43284;47.042;15.498;2023-02-28T05:50:20;17.05;;;5.68;;
57441;SDS011;43284;47.042;15.498;2023-02-28T05:52:49;12.88;;;5.03;;
57441;SDS011;43284;47.042;15.498;2023-02-28T05:55:15;13.80;;;5.38;;
57441;SDS011;43284;47.042;15.498;2023-02-28T05:57:41;13.15;;;5.72;;
57441;SDS011;43284;47.042;15.498;2023-02-28T06:00:07;13.00;;;5.07;;
57441;SDS011;43284;47.042;15.498;2023-02-28T06:02:34;11.15;;;5.60;;
57441;SDS011;43284;47.042;15.498;2023-02-28T06:05:00;10.73;;;4.65;;
57441;SDS011;43284;47.042;15.498;2023-02-28T06:07:26;14.40;;;5.03;;
57441;SDS011;43284;47.042;15.498;2023-02-28T06:09:51;12.15;;;6.07;;
57441;SDS011;43284;47.042;15.498;2023-02-28T06:12:17;10.25;;;5.57;;
57441;SDS011;43284;47.042;15.498;2023-02-28T06:14:42;9.50;;;5.22;;
57441;SDS011;43284;47.042;15.498;2023-02-28T06:17:08;14.98;;;6.35;;
57441;SDS011;43284;47.042;15.498;2023-02-28T06:19:34;14.70;;;6.03;;
57441;SDS011;43284;47.042;15.498;2023-02-28T06:22:03;12.82;;;6.53;;
57441;SDS011;43284;47.042;15.498;2023-02-28T06:24:30;17.83;;;6.20;;
57441;SDS011;43284;47.042;15.498;2023-02-28T06:26:56;14.52;;;6.07;;
57441;SDS011;43284;47.042;15.498;2023-02-28T06:29:24;13.40;;;6.07;;
57441;SDS011;43284;47.042;15.498;2023-02-28T06:31:50;16.27;;;5.65;;
57441;SDS011;43284;47.042;15.498;2023-02-28T06:34:16;14.65;;;6.00;;
57441;SDS011;43284;47.042;15.498;2023-02-28T06:36:42;13.80;;;5.68;;
57441;SDS011;43284;47.042;15.498;2023-02-28T06:39:08;11.73;;;5.32;;
57441;SDS011;43284;47.042;15.498;2023-02-28T06:41:35;16.02;;;6.20;;
57441;SDS011;43284;47.042;15.498;2023-02-28T06:44:14;14.52;;;5.97;;
57441;SDS011;43284;47.042;15.498;2023-02-28T06:46:42;13.85;;;5.95;;
57441;SDS011;43284;47.042;15.498;2023-02-28T06:49:09;21.02;;;6.70;;
57441;SDS011;43284;47.042;15.498;2023-02-28T06:51:36;13.43;;;6.45;;
57441;SDS011;43284;47.042;15.498;2023-02-28T06:54:04;15.25;;;7.22;;
57441;SDS011;43284;47.042;15.498;2023-02-28T06:56:30;16.73;;;7.13;;
57441;SDS011;43284;47.042;15.498;2023-02-28T06:58:56;10.80;;;5.70;;
57441;SDS011;43284;47.042;15.498;2023-02-28T07:01:22;12.75;;;6.03;;
57441;SDS011;43284;47.042;15.498;2023-02-28T07:03:49;15.02;;;6.70;;
57441;SDS011;43284;47.042;15.498;2023-02-28T07:06:17;14.50;;;5.93;;
57441;SDS011;43284;47.042;15.498;2023-02-28T07:08:44;12.73;;;6.07;;
57441;SDS011;43284;47.042;15.498;2023-02-28T07:11:09;15.15;;;6.07;;
57441;SDS011;43284;47.042;15.498;2023-02-28T07:13:35;14.45;;;6.20;;
57441;SDS011;43284;47.042;15.498;2023-02-28T07:16:05;15.43;;;7.55;;
57441;SDS011;43284;47.042;15.498;2023-02-28T07:18:34;17.15;;;6.70;;
57441;SDS011;43284;47.042;15.498;2023-02-28T07:21:03;16.13;;;6.55;;
57441;SDS011;43284;47.042;15.498;2023-02-28T07:23:31;16.65;;;6.50;;
57441;SDS011;43284;47.042;15.498;2023-02-28T07:25:57;15.93;;;6.68;;
57441;SDS011;43284;47.042;15.498;2023-02-28T07:28:23;13.38;;;7.05;;
57441;SDS011;43284;47.042;15.498;2023-02-28T07:30:48;14.50;;;6.15;;
57441;SDS011;43284;47.042;15.498;2023-02-28T07:33:14;15.95;;;6.72;;
57441;SDS011;43284;47.042;15.498;2023-02-28T07:35:40;19.33;;;7.20;;
57441;SDS011;43284;47.042;15.498;2023-02-28T07:38:06;17.10;;;7.07;;
57441;SDS011;43284;47.042;15.498;2023-02-28T07:40:33;12.52;;;5.90;;
57441;SDS011;43284;47.042;15.498;2023-02-28T07:43:00;15.98;;;6.85;;
57441;SDS011;43284;47.042;15.498;2023-02-28T07:45:27;19.40;;;6.97;;
57441;SDS011;43284;47.042;15.498;2023-02-28T07:47:57;18.02;;;6.90;;
57441;SDS011;43284;47.042;15.498;2023-02-28T07:50:23;22.83;;;6.88;;
57441;SDS011;43284;47.042;15.498;2023-02-28T07:52:48;20.33;;;6.88;;
57441;SDS011;43284;47.042;15.498;2023-02-28T07:55:14;19.30;;;7.28;;
57441;SDS011;43284;47.042;15.498;2023-02-28T07:57:41;16.80;;;7.43;;
57441;SDS011;43284;47.042;15.498;2023-02-28T08:00:09;15.30;;;6.68;;
57441;SDS011;43284;47.042;15.498;2023-02-28T08:02:37;18.55;;;6.88;;
57441;SDS011;43284;47.042;15.498;2023-02-28T08:05:03;15.35;;;7.55;;
57441;SDS011;43284;47.042;15.498;2023-02-28T08:07:29;15.98;;;6.95;;
57441;SDS011;43284;47.042;15.498;2023-02-28T08:09:55;20.13;;;7.03;;
57441;SDS011;43284;47.042;15.498;2023-02-28T08:12:20;14.63;;;6.88;;
57441;SDS011;43284;47.042;15.498;2023-02-28T08:14:46;18.30;;;8.13;;
57441;SDS011;43284;47.042;15.498;2023-02-28T08:17:12;14.82;;;6.30;;
57441;SDS011;43284;47.042;15.498;2023-02-28T08:19:37;16.42;;;7.32;;
57441;SDS011;43284;47.042;15.498;2023-02-28T08:22:03;15.90;;;7.50;;
57441;SDS011;43284;47.042;15.498;2023-02-28T08:24:29;15.80;;;6.93;;
57441;SDS011;43284;47.042;15.498;2023-02-28T08:26:55;17.92;;;6.65;;
57441;SDS011;43284;47.042;15.498;2023-02-28T08:29:21;14.60;;;7.30;;
57441;SDS011;43284;47.042;15.498;2023-02-28T08:31:47;18.17;;;7.15;;
57441;SDS011;43284;47.042;15.498;2023-02-28T08:34:13;16.85;;;7.57;;
57441;SDS011;43284;47.042;15.498;2023-02-28T08:36:40;14.95;;;6.90;;
57441;SDS011;43284;47.042;15.498;2023-02-28T08:39:08;17.67;;;7.20;;
57441;SDS011;43284;47.042;15.498;2023-02-28T08:41:34;19.50;;;8.15;;
57441;SDS011;43284;47.042;15.498;2023-02-28T08:44:00;16.00;;;7.45;;
57441;SDS011;43284;47.042;15.498;2023-02-28T08:46:26;23.80;;;7.78;;
57441;SDS011;43284;47.042;15.498;2023-02-28T08:48:53;16.77;;;7.65;;
57441;SDS011;43284;47.042;15.498;2023-02-28T08:51:20;17.92;;;7.20;;
57441;SDS011;43284;47.042;15.498;2023-02-28T08:53:51;15.75;;;6.90;;
57441;SDS011;43284;47.042;15.498;2023-02-28T08:56:18;21.77;;;7.47;;
57441;SDS011;43284;47.042;15.498;2023-02-28T08:58:45;16.70;;;7.43;;
57441;SDS011;43284;47.042;15.498;2023-02-28T09:01:13;21.48;;;7.95;;
57441;SDS011;43284;47.042;15.498;2023-02-28T09:03:41;17.50;;;7.43;;
57441;SDS011;43284;47.042;15.498;2023-02-28T09:06:08;13.98;;;6.72;;
57441;SDS011;43284;47.042;15.498;2023-02-28T09:08:35;20.20;;;7.57;;
57441;SDS011;43284;47.042;15.498;2023-02-28T09:11:01;18.13;;;7.22;;
57441;SDS011;43284;47.042;15.498;2023-02-28T09:13:27;19.40;;;7.68;;
57441;SDS011;43284;47.042;15.498;2023-02-28T09:15:53;18.65;;;7.03;;
57441;SDS011;43284;47.042;15.498;2023-02-28T09:18:19;16.15;;;7.50;;
57441;SDS011;43284;47.042;15.498;2023-02-28T09:20:45;15.32;;;6.70;;
57441;SDS011;43284;47.042;15.498;2023-02-28T09:23:12;17.73;;;7.38;;
57441;SDS011;43284;47.042;15.498;2023-02-28T09:25:38;15.27;;;7.80;;
57441;SDS011;43284;47.042;15.498;2023-02-28T09:28:17;20.67;;;8.20;;
57441;SDS011;43284;47.042;15.498;2023-02-28T09:30:48;18.38;;;7.72;;
57441;SDS011;43284;47.042;15.498;2023-02-28T09:33:15;20.25;;;8.00;;
57441;SDS011;43284;47.042;15.498;2023-02-28T09:35:42;22.30;;;8.70;;
57441;SDS011;43284;47.042;15.498;2023-02-28T09:38:09;20.98;;;8.50;;
57441;SDS011;43284;47.042;15.498;2023-02-28T09:40:37;19.50;;;7.30;;
57441;SDS011;43284;47.042;15.498;2023-02-28T09:43:22;18.75;;;7.32;;
57441;SDS011;43284;47.042;15.498;2023-02-28T09:46:02;14.10;;;6.75;;
57441;SDS011;43284;47.042;15.498;2023-02-28T09:48:39;19.27;;;8.10;;
57441;SDS011;43284;47.042;15.498;2023-02-28T09:51:12;15.00;;;7.07;;
57441;SDS011;43284;47.042;15.498;2023-02-28T09:53:49;20.30;;;7.85;;
57441;SDS011;43284;47.042;15.498;2023-02-28T09:56:15;19.65;;;7.80;;
57441;SDS011;43284;47.042;15.498;2023-02-28T09:58:47;24.88;;;7.45;;
57441;SDS011;43284;47.042;15.498;2023-02-28T10:10:02;21.38;;;7.03;;
57441;SDS011;43284;47.042;15.498;2023-02-28T10:12:30;17.60;;;7.47;;
57441;SDS011;43284;47.042;15.498;2023-02-28T10:14:58;21.85;;;8.32;;
57441;SDS011;43284;47.042;15.498;2023-02-28T10:17:29;18.10;;;8.05;;
57441;SDS011;43284;47.042;15.498;2023-02-28T10:20:13;17.95;;;7.45;;
57441;SDS011;43284;47.042;15.498;2023-02-28T10:23:45;19.00;;;7.50;;
57441;SDS011;43284;47.042;15.498;2023-02-28T10:25:47;18.90;;;7.40;;
57441;SDS011;43284;47.042;15.498;2023-02-28T10:30:46;21.42;;;7.95;;
57441;SDS011;43284;47.042;15.498;2023-02-28T10:33:16;17.10;;;8.32;;
57441;SDS011;43284;47.042;15.498;2023-02-28T10:35:48;20.90;;;8.10;;
57441;SDS011;43284;47.042;15.498;2023-02-28T10:38:19;16.15;;;7.30;;
57441;SDS011;43284;47.042;15.498;2023-02-28T10:40:51;19.55;;;8.13;;
57441;SDS011;43284;47.042;15.498;2023-02-28T10:48:58;16.40;;;6.88;;
57441;SDS011;43284;47.042;15.498;2023-02-28T10:51:38;22.08;;;8.75;;
57441;SDS011;43284;47.042;15.498;2023-02-28T10:54:05;20.15;;;8.20;;
57441;SDS011;43284;47.042;15.498;2023-02-28T10:56:31;21.20;;;8.70;;
57441;SDS011;43284;47.042;15.498;2023-02-28T10:59:02;20.38;;;8.35;;
57441;SDS011;43284;47.042;15.498;2023-02-28T11:01:48;21.27;;;8.23;;
57441;SDS011;43284;47.042;15.498;2023-02-28T11:04:34;15.05;;;7.57;;
57441;SDS011;43284;47.042;15.498;2023-02-28T11:07:04;21.77;;;7.97;;
57441;SDS011;43284;47.042;15.498;2023-02-28T11:09:39;19.48;;;7.78;;
57441;SDS011;43284;47.042;15.498;2023-02-28T11:12:07;19.17;;;8.15;;
57441;SDS011;43284;47.042;15.498;2023-02-28T11:14:48;21.42;;;9.10;;
57441;SDS011;43284;47.042;15.498;2023-02-28T11:17:22;21.10;;;8.73;;
57441;SDS011;43284;47.042;15.498;2023-02-28T11:19:51;29.00;;;9.75;;
57441;SDS011;43284;47.042;15.498;2023-02-28T11:22:23;25.20;;;8.43;;
57441;SDS011;43284;47.042;15.498;2023-02-28T11:24:54;21.55;;;8.48;;
57441;SDS011;43284;47.042;15.498;2023-02-28T11:29:59;22.02;;;9.70;;
57441;SDS011;43284;47.042;15.498;2023-02-28T11:32:29;25.30;;;8.88;;
57441;SDS011;43284;47.042;15.498;2023-02-28T11:35:00;25.10;;;9.63;;
57441;SDS011;43284;47.042;15.498;2023-02-28T11:37:28;27.60;;;9.02;;
57441;SDS011;43284;47.042;15.498;2023-02-28T11:39:56;18.80;;;8.73;;
57441;SDS011;43284;47.042;15.498;2023-02-28T11:42:36;22.05;;;9.27;;
57441;SDS011;43284;47.042;15.498;2023-02-28T11:48:27;21.73;;;9.35;;
57441;SDS011;43284;47.042;15.498;2023-02-28T11:53:40;23.88;;;10.75;;
57441;SDS011;43284;47.042;15.498;2023-02-28T11:56:33;22.10;;;8.73;;
57441;SDS011;43284;47.042;15.498;2023-02-28T11:59:51;22.05;;;9.45;;
57441;SDS011;43284;47.042;15.498;2023-02-28T12:07:56;22.80;;;9.40;;
57441;SDS011;43284;47.042;15.498;2023-02-28T12:10:37;19.73;;;9.18;;
57441;SDS011;43284;47.042;15.498;2023-02-28T12:13:21;17.40;;;8.50;;
57441;SDS011;43284;47.042;15.498;2023-02-28T12:18:51;20.92;;;9.27;;
57441;SDS011;43284;47.042;15.498;2023-02-28T12:21:48;23.90;;;8.85;;
57441;SDS011;43284;47.042;15.498;2023-02-28T12:27:13;20.10;;;9.35;;
57441;SDS011;43284;47.042;15.498;2023-02-28T12:29:49;23.42;;;9.75;;
57441;SDS011;43284;47.042;15.498;2023-02-28T12:32:27;21.02;;;9.25;;
57441;SDS011;43284;47.042;15.498;2023-02-28T12:40:28;24.40;;;9.60;;
57441;SDS011;43284;47.042;15.498;2023-02-28T12:43:19;21.70;;;8.32;;
57441;SDS011;43284;47.042;15.498;2023-02-28T12:45:55;28.27;;;10.07;;
57441;SDS011;43284;47.042;15.498;2023-02-28T12:48:29;20.23;;;8.35;;
57441;SDS011;43284;47.042;15.498;2023-02-28T12:51:02;23.60;;;9.60;;
57441;SDS011;43284;47.042;15.498;2023-02-28T12:53:33;26.92;;;10.50;;
57441;SDS011;43284;47.042;15.498;2023-02-28T12:56:11;28.13;;;9.55;;
57441;SDS011;43284;47.042;15.498;2023-02-28T12:58:46;29.58;;;11.23;;
57441;SDS011;43284;47.042;15.498;2023-02-28T13:09:58;20.65;;;8.48;;
57441;SDS011;43284;47.042;15.498;2023-02-28T13:12:26;27.05;;;9.57;;
57441;SDS011;43284;47.042;15.498;2023-02-28T13:15:01;20.65;;;9.32;;
57441;SDS011;43284;47.042;15.498;2023-02-28T13:17:57;26.60;;;9.82;;
57441;SDS011;43284;47.042;15.498;2023-02-28T13:20:34;26.45;;;9.45;;
57441;SDS011;43284;47.042;15.498;2023-02-28T13:34:36;22.05;;;8.85;;
57441;SDS011;43284;47.042;15.498;2023-02-28T13:39:47;22.88;;;9.57;;
57441;SDS011;43284;47.042;15.498;2023-02-28T13:47:33;25.00;;;9.65;;
57441;SDS011;43284;47.042;15.498;2023-02-28T14:06:54;23.13;;;9.43;;
57441;SDS011;43284;47.042;15.498;2023-02-28T14:09:29;24.98;;;8.52;;
57441;SDS011;43284;47.042;15.498;2023-02-28T14:20:21;22.27;;;8.20;;
57441;SDS011;43284;47.042;15.498;2023-02-28T14:23:06;20.83;;;9.73;;
57441;SDS011;43284;47.042;15.498;2023-02-28T14:28:43;22.10;;;9.38;;
57441;SDS011;43284;47.042;15.498;2023-02-28T14:31:24;22.80;;;9.38;;
57441;SDS011;43284;47.042;15.498;2023-02-28T14:36:45;20.38;;;8.73;;
57441;SDS011;43284;47.042;15.498;2023-02-28T14:39:17;21.75;;;8.82;;
57441;SDS011;43284;47.042;15.498;2023-02-28T14:41:46;19.85;;;9.20;;
57441;SDS011;43284;47.042;15.498;2023-02-28T14:44:23;23.15;;;9.23;;
57441;SDS011;43284;47.042;15.498;2023-02-28T14:46:52;17.70;;;8.20;;
57441;SDS011;43284;47.042;15.498;2023-02-28T14:51:45;28.50;;;10.02;;
57441;SDS011;43284;47.042;15.498;2023-02-28T14:54:13;23.67;;;9.40;;
57441;SDS011;43284;47.042;15.498;2023-02-28T14:56:41;23.92;;;9.35;;
57441;SDS011;43284;47.042;15.498;2023-02-28T14:59:24;17.90;;;8.50;;
57441;SDS011;43284;47.042;15.498;2023-02-28T15:05:00;22.40;;;8.90;;
57441;SDS011;43284;47.042;15.498;2023-02-28T15:07:48;20.30;;;8.13;;
57441;SDS011;43284;47.042;15.498;2023-02-28T15:10:26;18.73;;;8.23;;
57441;SDS011;43284;47.042;15.498;2023-02-28T15:13:04;17.80;;;7.95;;
57441;SDS011;43284;47.042;15.498;2023-02-28T15:15:42;19.45;;;7.75;;
57441;SDS011;43284;47.042;15.498;2023-02-28T15:18:10;21.63;;;8.50;;
57441;SDS011;43284;47.042;15.498;2023-02-28T15:20:53;17.88;;;8.10;;
57441;SDS011;43284;47.042;15.498;2023-02-28T15:23:20;23.08;;;8.35;;
57441;SDS011;43284;47.042;15.498;2023-02-28T15:25:47;20.73;;;8.63;;
57441;SDS011;43284;47.042;15.498;2023-02-28T15:28:18;24.42;;;9.63;;
57441;SDS011;43284;47.042;15.498;2023-02-28T15:30:54;19.08;;;8.38;;
57441;SDS011;43284;47.042;15.498;2023-02-28T15:33:26;22.20;;;9.30;;
57441;SDS011;43284;47.042;15.498;2023-02-28T15:38:46;20.63;;;8.70;;
57441;SDS011;43284;47.042;15.498;2023-02-28T15:41:27;21.42;;;9.32;;
57441;SDS011;43284;47.042;15.498;2023-02-28T15:47:24;20.00;;;8.30;;
57441;SDS011;43284;47.042;15.498;2023-02-28T15:50:17;23.42;;;8.60;;
57441;SDS011;43284;47.042;15.498;2023-02-28T15:52:26;22.58;;;9.07;;
57441;SDS011;43284;47.042;15.498;2023-02-28T15:55:09;21.83;;;7.72;;
57441;SDS011;43284;47.042;15.498;2023-02-28T15:57:41;20.98;;;8.00;;
57441;SDS011;43284;47.042;15.498;2023-02-28T16:00:10;19.67;;;8.45;;
57441;SDS011;43284;47.042;15.498;2023-02-28T16:02:40;21.77;;;8.98;;
57441;SDS011;43284;47.042;15.498;2023-02-28T16:07:36;19.75;;;8.48;;
57441;SDS011;43284;47.042;15.498;2023-02-28T16:10:04;18.90;;;7.32;;
57441;SDS011;43284;47.042;15.498;2023-02-28T16:12:32;16.15;;;7.60;;
57441;SDS011;43284;47.042;15.498;2023-02-28T16:15:01;24.25;;;8.45;;
57441;SDS011;43284;47.042;15.498;2023-02-28T16:17:34;18.52;;;8.15;;
57441;SDS011;43284;47.042;15.498;2023-02-28T16:20:11;19.20;;;7.85;;
57441;SDS011;43284;47.042;15.498;2023-02-28T16:22:45;21.30;;;7.75;;
57441;SDS011;43284;47.042;15.498;2023-02-28T16:25:14;19.98;;;8.43;;
57441;SDS011;43284;47.042;15.498;2023-02-28T16:27:42;18.88;;;7.97;;
57441;SDS011;43284;47.042;15.498;2023-02-28T16:30:15;17.75;;;8.23;;
57441;SDS011;43284;47.042;15.498;2023-02-28T16:32:51;20.40;;;7.88;;
57441;SDS011;43284;47.042;15.498;2023-02-28T16:35:18;20.75;;;8.48;;
57441;SDS011;43284;47.042;15.498;2023-02-28T16:37:45;20.33;;;8.43;;
57441;SDS011;43284;47.042;15.498;2023-02-28T16:40:17;22.58;;;8.30;;
57441;SDS011;43284;47.042;15.498;2023-02-28T16:42:49;21.50;;;8.23;;
57441;SDS011;43284;47.042;15.498;2023-02-28T16:45:17;16.45;;;7.75;;
57441;SDS011;43284;47.042;15.498;2023-02-28T16:47:45;20.75;;;7.28;;
57441;SDS011;43284;47.042;15.498;2023-02-28T16:50:15;17.25;;;8.02;;
57441;SDS011;43284;47.042;15.498;2023-02-28T16:53:01;18.63;;;7.47;;
57441;SDS011;43284;47.042;15.498;2023-02-28T16:55:26;17.08;;;7.75;;
57441;SDS011;43284;47.042;15.498;2023-02-28T16:57:57;18.88;;;7.43;;
57441;SDS011;43284;47.042;15.498;2023-02-28T17:00:24;22.50;;;8.38;;
57441;SDS011;43284;47.042;15.498;2023-02-28T17:02:52;20.17;;;8.27;;
57441;SDS011;43284;47.042;15.498;2023-02-28T17:05:18;22.42;;;7.63;;
57441;SDS011;43284;47.042;15.498;2023-02-28T17:07:45;19.02;;;8.02;;
57441;SDS011;43284;47.042;15.498;2023-02-28T17:12:47;18.50;;;7.45;;